Airfield :
LOGIN :

Register | Disclaimer

   EN    FR    IT 

 










Legend :    VFR   Marginal VFR   IFR   Intensive IFR   Very Intensive IFR
Visi :
Ceiling :
>= 8 km
>= 3000ft
5 to 8 km
1000 to 3000 ft
1500m to 5 km
500 to 1000 ft
800 to 1500m
200 to 500 ft
< 800m
< 200 ft
Symbols :   Thunderstorms  Fog  Heavy snow  Heavy precipitations  Wind > 20 kt
SIGMETs :     Misc.  Thunderstorms  Icing  Turbulence  Mountain Waves  Volcanic Ashes






- Airport Elevation : 56 ft
- IATA code : BZR


LFMU - Beziers / Vias

CURRENT METAR :
  • 300230Z AUTO 28005KT 9999 NSC 03/01 Q1018 NOSIG

EXPIRED METARs :
  • 300200Z AUTO 27006KT 9999 NSC 03/02 Q1018
  • 300130Z AUTO 28005KT 9999 NSC 03/02 Q1018
  • 300100Z AUTO 28004KT 9999 NSC 04/02 Q1018
  • 300030Z AUTO 28005KT 9999 NSC 05/03 Q1018

TAF TAF LFMU
Valid from the 30 at 03:00 until the 01 at 03:00 UTC


300200Z 3003/0103 28008KT CAVOK
ATIS : +33 4 67 90 88 88



MET'MAP, your aeronautical weather chart ! - Copyright ORBIFLY December 2007 - Disclaimer

ORBIFLY MET'MAP TEAM :

Programming & Development : Alexandra Zaïnal
Original concept : Baudouin d'Aumeries
Technical & hardware support : Manuel Goepfert
Assistance : Marc-Olivier Méhu




SOURCES & CREDITS :

   NOAA